sensor_id;sensor_type;location;lat;lon;timestamp;P1;durP1;ratioP1;P2;durP2;ratioP2
18716;SDS011;9487;50.892;6.906;2024-03-07T00:02:05;42.07;;;33.17;;
18716;SDS011;9487;50.892;6.906;2024-03-07T00:04:32;45.30;;;34.97;;
18716;SDS011;9487;50.892;6.906;2024-03-07T00:07:01;40.47;;;31.03;;
18716;SDS011;9487;50.892;6.906;2024-03-07T00:09:28;41.50;;;32.47;;
18716;SDS011;9487;50.892;6.906;2024-03-07T00:11:55;44.13;;;33.60;;
18716;SDS011;9487;50.892;6.906;2024-03-07T00:14:22;44.40;;;32.90;;
18716;SDS011;9487;50.892;6.906;2024-03-07T00:16:51;42.83;;;33.70;;
18716;SDS011;9487;50.892;6.906;2024-03-07T00:19:20;43.47;;;33.57;;
18716;SDS011;9487;50.892;6.906;2024-03-07T00:21:50;40.53;;;31.93;;
18716;SDS011;9487;50.892;6.906;2024-03-07T00:24:17;41.53;;;32.83;;
18716;SDS011;9487;50.892;6.906;2024-03-07T00:26:44;39.43;;;32.20;;
18716;SDS011;9487;50.892;6.906;2024-03-07T00:29:11;41.43;;;31.97;;
18716;SDS011;9487;50.892;6.906;2024-03-07T00:31:37;41.60;;;32.87;;
18716;SDS011;9487;50.892;6.906;2024-03-07T00:34:04;40.23;;;31.90;;
18716;SDS011;9487;50.892;6.906;2024-03-07T00:36:33;43.73;;;33.00;;
18716;SDS011;9487;50.892;6.906;2024-03-07T00:38:59;41.20;;;33.40;;
18716;SDS011;9487;50.892;6.906;2024-03-07T00:41:26;41.90;;;34.17;;
18716;SDS011;9487;50.892;6.906;2024-03-07T00:43:53;43.47;;;34.20;;
18716;SDS011;9487;50.892;6.906;2024-03-07T00:46:20;42.90;;;33.00;;
18716;SDS011;9487;50.892;6.906;2024-03-07T00:48:46;41.57;;;33.50;;
18716;SDS011;9487;50.892;6.906;2024-03-07T00:51:13;41.83;;;31.93;;
18716;SDS011;9487;50.892;6.906;2024-03-07T00:53:41;44.47;;;33.50;;
18716;SDS011;9487;50.892;6.906;2024-03-07T00:56:08;43.27;;;32.10;;
18716;SDS011;9487;50.892;6.906;2024-03-07T00:58:35;45.30;;;33.27;;
18716;SDS011;9487;50.892;6.906;2024-03-07T01:01:02;43.30;;;32.93;;
18716;SDS011;9487;50.892;6.906;2024-03-07T01:03:29;43.17;;;34.07;;
18716;SDS011;9487;50.892;6.906;2024-03-07T01:05:56;45.43;;;35.00;;
18716;SDS011;9487;50.892;6.906;2024-03-07T01:08:23;44.87;;;33.10;;
18716;SDS011;9487;50.892;6.906;2024-03-07T01:10:51;43.63;;;33.23;;
18716;SDS011;9487;50.892;6.906;2024-03-07T01:13:18;45.30;;;33.00;;
18716;SDS011;9487;50.892;6.906;2024-03-07T01:15:47;46.23;;;34.33;;
18716;SDS011;9487;50.892;6.906;2024-03-07T01:18:14;45.20;;;34.47;;
18716;SDS011;9487;50.892;6.906;2024-03-07T01:20:42;44.70;;;33.27;;
18716;SDS011;9487;50.892;6.906;2024-03-07T01:23:09;46.67;;;33.77;;
18716;SDS011;9487;50.892;6.906;2024-03-07T01:25:36;49.17;;;34.93;;
18716;SDS011;9487;50.892;6.906;2024-03-07T01:28:04;45.93;;;34.63;;
18716;SDS011;9487;50.892;6.906;2024-03-07T01:30:31;43.77;;;33.73;;
18716;SDS011;9487;50.892;6.906;2024-03-07T01:32:58;44.77;;;33.60;;
18716;SDS011;9487;50.892;6.906;2024-03-07T01:35:25;43.60;;;33.97;;
18716;SDS011;9487;50.892;6.906;2024-03-07T01:37:51;47.87;;;33.27;;
18716;SDS011;9487;50.892;6.906;2024-03-07T01:40:19;41.97;;;32.33;;
18716;SDS011;9487;50.892;6.906;2024-03-07T01:42:47;41.43;;;32.57;;
18716;SDS011;9487;50.892;6.906;2024-03-07T01:45:16;41.57;;;33.17;;
18716;SDS011;9487;50.892;6.906;2024-03-07T01:47:43;40.20;;;32.00;;
18716;SDS011;9487;50.892;6.906;2024-03-07T01:50:10;40.93;;;32.47;;
18716;SDS011;9487;50.892;6.906;2024-03-07T01:52:38;42.20;;;32.50;;
18716;SDS011;9487;50.892;6.906;2024-03-07T01:55:07;43.20;;;32.83;;
18716;SDS011;9487;50.892;6.906;2024-03-07T01:57:36;41.60;;;32.57;;
18716;SDS011;9487;50.892;6.906;2024-03-07T02:00:03;43.30;;;32.80;;
18716;SDS011;9487;50.892;6.906;2024-03-07T02:02:33;41.43;;;32.10;;
18716;SDS011;9487;50.892;6.906;2024-03-07T02:05:00;40.17;;;31.77;;
18716;SDS011;9487;50.892;6.906;2024-03-07T02:07:27;43.83;;;31.93;;
18716;SDS011;9487;50.892;6.906;2024-03-07T02:09:59;43.60;;;32.73;;
18716;SDS011;9487;50.892;6.906;2024-03-07T02:12:26;44.43;;;31.77;;
18716;SDS011;9487;50.892;6.906;2024-03-07T02:14:54;45.17;;;33.13;;
18716;SDS011;9487;50.892;6.906;2024-03-07T02:17:22;43.20;;;32.83;;
18716;SDS011;9487;50.892;6.906;2024-03-07T02:19:51;45.17;;;33.83;;
18716;SDS011;9487;50.892;6.906;2024-03-07T02:22:19;47.20;;;34.67;;
18716;SDS011;9487;50.892;6.906;2024-03-07T02:24:46;44.93;;;32.50;;
18716;SDS011;9487;50.892;6.906;2024-03-07T02:27:13;43.30;;;32.70;;
18716;SDS011;9487;50.892;6.906;2024-03-07T02:29:40;45.53;;;34.00;;
18716;SDS011;9487;50.892;6.906;2024-03-07T02:32:07;43.20;;;32.30;;
18716;SDS011;9487;50.892;6.906;2024-03-07T02:34:34;42.10;;;31.97;;
18716;SDS011;9487;50.892;6.906;2024-03-07T02:37:01;47.73;;;34.60;;
18716;SDS011;9487;50.892;6.906;2024-03-07T02:39:30;41.93;;;31.83;;
18716;SDS011;9487;50.892;6.906;2024-03-07T02:41:56;43.27;;;32.30;;
18716;SDS011;9487;50.892;6.906;2024-03-07T02:44:23;42.10;;;31.80;;
18716;SDS011;9487;50.892;6.906;2024-03-07T02:46:50;42.33;;;32.43;;
18716;SDS011;9487;50.892;6.906;2024-03-07T02:49:17;41.27;;;32.20;;
18716;SDS011;9487;50.892;6.906;2024-03-07T02:51:44;42.87;;;32.00;;
18716;SDS011;9487;50.892;6.906;2024-03-07T02:54:11;41.53;;;32.33;;
18716;SDS011;9487;50.892;6.906;2024-03-07T02:56:39;40.57;;;32.00;;
18716;SDS011;9487;50.892;6.906;2024-03-07T02:59:06;42.20;;;31.07;;
18716;SDS011;9487;50.892;6.906;2024-03-07T03:01:32;39.50;;;30.30;;
18716;SDS011;9487;50.892;6.906;2024-03-07T03:04:00;41.97;;;31.30;;
18716;SDS011;9487;50.892;6.906;2024-03-07T03:06:26;42.10;;;30.30;;
18716;SDS011;9487;50.892;6.906;2024-03-07T03:08:53;39.20;;;30.20;;
18716;SDS011;9487;50.892;6.906;2024-03-07T03:11:20;38.87;;;30.23;;
18716;SDS011;9487;50.892;6.906;2024-03-07T03:13:48;40.80;;;31.43;;
18716;SDS011;9487;50.892;6.906;2024-03-07T03:16:15;38.63;;;29.83;;
18716;SDS011;9487;50.892;6.906;2024-03-07T03:18:42;40.20;;;30.30;;
18716;SDS011;9487;50.892;6.906;2024-03-07T03:21:08;38.77;;;29.73;;
18716;SDS011;9487;50.892;6.906;2024-03-07T03:23:35;37.30;;;29.83;;
18716;SDS011;9487;50.892;6.906;2024-03-07T03:26:02;39.07;;;29.83;;
18716;SDS011;9487;50.892;6.906;2024-03-07T03:28:29;39.03;;;30.33;;
18716;SDS011;9487;50.892;6.906;2024-03-07T03:30:58;37.20;;;29.33;;
18716;SDS011;9487;50.892;6.906;2024-03-07T03:33:25;37.67;;;29.20;;
18716;SDS011;9487;50.892;6.906;2024-03-07T03:35:51;37.60;;;28.80;;
18716;SDS011;9487;50.892;6.906;2024-03-07T03:38:20;39.83;;;28.70;;
18716;SDS011;9487;50.892;6.906;2024-03-07T03:40:47;38.80;;;28.97;;
18716;SDS011;9487;50.892;6.906;2024-03-07T03:43:14;35.57;;;28.27;;
18716;SDS011;9487;50.892;6.906;2024-03-07T03:45:40;37.87;;;29.07;;
18716;SDS011;9487;50.892;6.906;2024-03-07T03:48:08;35.60;;;28.33;;
18716;SDS011;9487;50.892;6.906;2024-03-07T03:50:35;37.03;;;28.83;;
18716;SDS011;9487;50.892;6.906;2024-03-07T03:53:02;37.23;;;29.37;;
18716;SDS011;9487;50.892;6.906;2024-03-07T03:55:30;34.80;;;27.03;;
18716;SDS011;9487;50.892;6.906;2024-03-07T03:57:58;38.27;;;29.83;;
18716;SDS011;9487;50.892;6.906;2024-03-07T04:00:25;35.73;;;27.77;;
18716;SDS011;9487;50.892;6.906;2024-03-07T04:02:52;37.23;;;29.17;;
18716;SDS011;9487;50.892;6.906;2024-03-07T04:05:20;35.90;;;27.13;;
18716;SDS011;9487;50.892;6.906;2024-03-07T04:07:47;37.10;;;28.17;;
18716;SDS011;9487;50.892;6.906;2024-03-07T04:10:15;35.97;;;27.50;;
18716;SDS011;9487;50.892;6.906;2024-03-07T04:12:42;36.37;;;27.70;;
18716;SDS011;9487;50.892;6.906;2024-03-07T04:15:10;37.10;;;27.80;;
18716;SDS011;9487;50.892;6.906;2024-03-07T04:17:38;36.00;;;28.20;;
18716;SDS011;9487;50.892;6.906;2024-03-07T04:20:06;36.10;;;27.90;;
18716;SDS011;9487;50.892;6.906;2024-03-07T04:22:37;38.67;;;28.30;;
18716;SDS011;9487;50.892;6.906;2024-03-07T04:25:04;34.67;;;26.87;;
18716;SDS011;9487;50.892;6.906;2024-03-07T04:27:32;35.83;;;27.30;;
18716;SDS011;9487;50.892;6.906;2024-03-07T04:30:01;35.83;;;26.27;;
18716;SDS011;9487;50.892;6.906;2024-03-07T04:32:30;33.63;;;25.73;;
18716;SDS011;9487;50.892;6.906;2024-03-07T04:34:56;35.13;;;25.97;;
18716;SDS011;9487;50.892;6.906;2024-03-07T04:37:23;31.83;;;25.33;;
18716;SDS011;9487;50.892;6.906;2024-03-07T04:39:51;33.90;;;25.97;;
18716;SDS011;9487;50.892;6.906;2024-03-07T04:42:18;33.57;;;26.07;;
18716;SDS011;9487;50.892;6.906;2024-03-07T04:44:45;33.43;;;25.30;;
18716;SDS011;9487;50.892;6.906;2024-03-07T04:47:12;33.73;;;25.57;;
18716;SDS011;9487;50.892;6.906;2024-03-07T04:49:38;35.53;;;26.10;;
18716;SDS011;9487;50.892;6.906;2024-03-07T04:52:06;33.27;;;25.93;;
18716;SDS011;9487;50.892;6.906;2024-03-07T04:54:32;34.17;;;26.30;;
18716;SDS011;9487;50.892;6.906;2024-03-07T04:57:01;35.13;;;26.00;;
18716;SDS011;9487;50.892;6.906;2024-03-07T04:59:28;33.97;;;26.43;;
18716;SDS011;9487;50.892;6.906;2024-03-07T05:01:56;34.90;;;27.23;;
18716;SDS011;9487;50.892;6.906;2024-03-07T05:04:23;32.33;;;25.47;;
18716;SDS011;9487;50.892;6.906;2024-03-07T05:06:50;35.43;;;26.10;;
18716;SDS011;9487;50.892;6.906;2024-03-07T05:09:17;33.97;;;25.63;;
18716;SDS011;9487;50.892;6.906;2024-03-07T05:11:53;34.83;;;26.77;;
18716;SDS011;9487;50.892;6.906;2024-03-07T05:14:21;35.17;;;25.43;;
18716;SDS011;9487;50.892;6.906;2024-03-07T05:16:47;37.80;;;26.93;;
18716;SDS011;9487;50.892;6.906;2024-03-07T05:19:30;34.00;;;25.80;;
18716;SDS011;9487;50.892;6.906;2024-03-07T05:21:58;37.90;;;26.40;;
18716;SDS011;9487;50.892;6.906;2024-03-07T05:24:24;35.80;;;26.93;;
18716;SDS011;9487;50.892;6.906;2024-03-07T05:26:51;35.67;;;26.93;;
18716;SDS011;9487;50.892;6.906;2024-03-07T05:29:19;35.07;;;25.83;;
18716;SDS011;9487;50.892;6.906;2024-03-07T05:31:47;35.90;;;26.80;;
18716;SDS011;9487;50.892;6.906;2024-03-07T05:34:14;38.23;;;28.10;;
18716;SDS011;9487;50.892;6.906;2024-03-07T05:36:44;33.83;;;25.47;;
18716;SDS011;9487;50.892;6.906;2024-03-07T05:39:12;36.43;;;26.20;;
18716;SDS011;9487;50.892;6.906;2024-03-07T05:41:40;34.20;;;25.87;;
18716;SDS011;9487;50.892;6.906;2024-03-07T05:44:08;36.53;;;26.83;;
18716;SDS011;9487;50.892;6.906;2024-03-07T05:46:35;34.90;;;25.70;;
18716;SDS011;9487;50.892;6.906;2024-03-07T05:49:07;33.20;;;24.97;;
18716;SDS011;9487;50.892;6.906;2024-03-07T05:51:34;34.80;;;25.50;;
18716;SDS011;9487;50.892;6.906;2024-03-07T05:54:01;33.70;;;25.97;;
18716;SDS011;9487;50.892;6.906;2024-03-07T05:56:31;36.67;;;25.80;;
18716;SDS011;9487;50.892;6.906;2024-03-07T05:59:01;35.73;;;27.33;;
18716;SDS011;9487;50.892;6.906;2024-03-07T06:01:29;41.70;;;30.73;;
18716;SDS011;9487;50.892;6.906;2024-03-07T06:03:58;39.20;;;28.37;;
18716;SDS011;9487;50.892;6.906;2024-03-07T06:06:26;35.77;;;26.83;;
18716;SDS011;9487;50.892;6.906;2024-03-07T06:08:52;36.77;;;27.07;;
18716;SDS011;9487;50.892;6.906;2024-03-07T06:11:19;35.93;;;26.77;;
18716;SDS011;9487;50.892;6.906;2024-03-07T06:13:46;33.57;;;25.07;;
18716;SDS011;9487;50.892;6.906;2024-03-07T06:16:14;33.40;;;25.50;;
18716;SDS011;9487;50.892;6.906;2024-03-07T06:18:40;36.20;;;27.83;;
18716;SDS011;9487;50.892;6.906;2024-03-07T06:21:07;33.83;;;26.23;;
18716;SDS011;9487;50.892;6.906;2024-03-07T06:23:36;34.77;;;25.93;;
18716;SDS011;9487;50.892;6.906;2024-03-07T06:26:03;34.30;;;26.93;;
18716;SDS011;9487;50.892;6.906;2024-03-07T06:28:37;35.17;;;26.87;;
18716;SDS011;9487;50.892;6.906;2024-03-07T06:31:05;36.40;;;26.67;;
18716;SDS011;9487;50.892;6.906;2024-03-07T06:33:33;38.90;;;27.10;;
18716;SDS011;9487;50.892;6.906;2024-03-07T06:36:00;33.20;;;25.93;;
18716;SDS011;9487;50.892;6.906;2024-03-07T06:38:27;40.03;;;27.00;;
18716;SDS011;9487;50.892;6.906;2024-03-07T06:40:55;32.73;;;25.40;;
18716;SDS011;9487;50.892;6.906;2024-03-07T06:43:22;34.37;;;25.77;;
18716;SDS011;9487;50.892;6.906;2024-03-07T06:45:49;33.03;;;25.23;;
18716;SDS011;9487;50.892;6.906;2024-03-07T06:48:17;34.33;;;26.73;;
18716;SDS011;9487;50.892;6.906;2024-03-07T06:50:43;35.33;;;26.87;;
18716;SDS011;9487;50.892;6.906;2024-03-07T06:53:10;31.13;;;26.00;;
18716;SDS011;9487;50.892;6.906;2024-03-07T06:55:37;35.43;;;27.47;;
18716;SDS011;9487;50.892;6.906;2024-03-07T06:58:05;33.90;;;27.30;;
18716;SDS011;9487;50.892;6.906;2024-03-07T07:00:32;34.10;;;26.70;;
18716;SDS011;9487;50.892;6.906;2024-03-07T07:03:01;33.93;;;26.80;;
18716;SDS011;9487;50.892;6.906;2024-03-07T07:05:29;32.77;;;26.40;;
18716;SDS011;9487;50.892;6.906;2024-03-07T07:07:56;32.77;;;26.17;;
18716;SDS011;9487;50.892;6.906;2024-03-07T07:10:23;34.80;;;26.50;;
18716;SDS011;9487;50.892;6.906;2024-03-07T07:12:50;32.70;;;25.37;;
18716;SDS011;9487;50.892;6.906;2024-03-07T07:15:21;31.93;;;25.40;;
18716;SDS011;9487;50.892;6.906;2024-03-07T07:17:48;32.00;;;24.70;;
18716;SDS011;9487;50.892;6.906;2024-03-07T07:20:15;32.80;;;26.07;;
18716;SDS011;9487;50.892;6.906;2024-03-07T07:22:43;31.10;;;24.07;;
18716;SDS011;9487;50.892;6.906;2024-03-07T07:25:12;31.33;;;25.80;;
18716;SDS011;9487;50.892;6.906;2024-03-07T07:27:40;32.30;;;25.93;;
18716;SDS011;9487;50.892;6.906;2024-03-07T07:30:08;30.10;;;24.87;;
18716;SDS011;9487;50.892;6.906;2024-03-07T07:32:39;35.00;;;26.90;;
18716;SDS011;9487;50.892;6.906;2024-03-07T07:35:07;32.20;;;25.80;;
18716;SDS011;9487;50.892;6.906;2024-03-07T07:37:36;31.00;;;24.83;;
18716;SDS011;9487;50.892;6.906;2024-03-07T07:40:04;33.73;;;26.00;;
18716;SDS011;9487;50.892;6.906;2024-03-07T07:42:34;31.37;;;25.60;;
18716;SDS011;9487;50.892;6.906;2024-03-07T07:45:03;33.87;;;28.70;;
18716;SDS011;9487;50.892;6.906;2024-03-07T07:47:31;30.23;;;24.40;;
18716;SDS011;9487;50.892;6.906;2024-03-07T07:50:03;29.63;;;24.63;;
18716;SDS011;9487;50.892;6.906;2024-03-07T07:52:39;29.93;;;23.30;;
18716;SDS011;9487;50.892;6.906;2024-03-07T07:55:06;31.40;;;24.43;;
18716;SDS011;9487;50.892;6.906;2024-03-07T07:57:39;30.87;;;25.77;;
18716;SDS011;9487;50.892;6.906;2024-03-07T08:00:08;31.23;;;25.40;;
18716;SDS011;9487;50.892;6.906;2024-03-07T08:02:36;29.10;;;24.17;;
18716;SDS011;9487;50.892;6.906;2024-03-07T08:05:04;29.90;;;24.43;;
18716;SDS011;9487;50.892;6.906;2024-03-07T08:07:31;27.93;;;23.67;;
18716;SDS011;9487;50.892;6.906;2024-03-07T08:09:58;32.10;;;23.83;;
18716;SDS011;9487;50.892;6.906;2024-03-07T08:12:25;27.07;;;23.50;;
18716;SDS011;9487;50.892;6.906;2024-03-07T08:14:52;26.20;;;22.17;;
18716;SDS011;9487;50.892;6.906;2024-03-07T08:17:18;27.00;;;22.87;;
18716;SDS011;9487;50.892;6.906;2024-03-07T08:19:46;27.50;;;22.47;;
18716;SDS011;9487;50.892;6.906;2024-03-07T08:22:15;27.27;;;22.67;;
18716;SDS011;9487;50.892;6.906;2024-03-07T08:24:43;25.07;;;21.17;;
18716;SDS011;9487;50.892;6.906;2024-03-07T08:27:10;26.10;;;22.30;;
18716;SDS011;9487;50.892;6.906;2024-03-07T08:29:37;24.83;;;22.03;;
18716;SDS011;9487;50.892;6.906;2024-03-07T08:32:04;23.80;;;21.20;;
18716;SDS011;9487;50.892;6.906;2024-03-07T08:34:32;24.27;;;21.53;;
18716;SDS011;9487;50.892;6.906;2024-03-07T08:36:59;27.07;;;22.50;;
18716;SDS011;9487;50.892;6.906;2024-03-07T08:39:27;27.03;;;21.97;;
18716;SDS011;9487;50.892;6.906;2024-03-07T08:41:53;22.87;;;18.73;;
18716;SDS011;9487;50.892;6.906;2024-03-07T08:44:20;26.40;;;21.97;;
18716;SDS011;9487;50.892;6.906;2024-03-07T08:46:47;24.93;;;20.70;;
18716;SDS011;9487;50.892;6.906;2024-03-07T08:49:14;24.53;;;21.43;;
18716;SDS011;9487;50.892;6.906;2024-03-07T08:51:42;22.77;;;19.50;;
18716;SDS011;9487;50.892;6.906;2024-03-07T08:54:09;23.67;;;19.67;;
18716;SDS011;9487;50.892;6.906;2024-03-07T08:56:37;21.80;;;19.23;;
18716;SDS011;9487;50.892;6.906;2024-03-07T08:59:04;20.70;;;17.73;;
18716;SDS011;9487;50.892;6.906;2024-03-07T09:01:31;22.83;;;18.83;;
18716;SDS011;9487;50.892;6.906;2024-03-07T09:03:59;22.17;;;18.13;;
18716;SDS011;9487;50.892;6.906;2024-03-07T09:06:26;23.57;;;18.57;;
18716;SDS011;9487;50.892;6.906;2024-03-07T09:08:52;23.17;;;19.20;;
18716;SDS011;9487;50.892;6.906;2024-03-07T09:11:19;22.70;;;17.47;;
18716;SDS011;9487;50.892;6.906;2024-03-07T09:13:47;21.87;;;17.87;;
18716;SDS011;9487;50.892;6.906;2024-03-07T09:16:14;22.13;;;17.70;;
18716;SDS011;9487;50.892;6.906;2024-03-07T09:18:41;22.87;;;17.73;;
18716;SDS011;9487;50.892;6.906;2024-03-07T09:21:08;23.20;;;17.80;;
18716;SDS011;9487;50.892;6.906;2024-03-07T09:23:35;20.37;;;17.53;;
18716;SDS011;9487;50.892;6.906;2024-03-07T09:26:02;23.33;;;18.70;;
18716;SDS011;9487;50.892;6.906;2024-03-07T09:28:32;23.73;;;18.10;;
18716;SDS011;9487;50.892;6.906;2024-03-07T09:31:00;21.33;;;17.40;;
18716;SDS011;9487;50.892;6.906;2024-03-07T09:33:27;19.63;;;17.37;;
18716;SDS011;9487;50.892;6.906;2024-03-07T09:35:54;22.03;;;17.17;;
18716;SDS011;9487;50.892;6.906;2024-03-07T09:38:23;20.37;;;16.93;;
18716;SDS011;9487;50.892;6.906;2024-03-07T09:40:49;22.63;;;16.80;;
18716;SDS011;9487;50.892;6.906;2024-03-07T09:43:16;21.13;;;18.13;;
18716;SDS011;9487;50.892;6.906;2024-03-07T09:45:44;21.47;;;16.27;;
18716;SDS011;9487;50.892;6.906;2024-03-07T09:48:15;22.10;;;16.50;;
18716;SDS011;9487;50.892;6.906;2024-03-07T09:50:42;20.30;;;17.27;;
18716;SDS011;9487;50.892;6.906;2024-03-07T09:53:12;21.37;;;17.57;;
18716;SDS011;9487;50.892;6.906;2024-03-07T09:55:41;21.37;;;17.00;;
18716;SDS011;9487;50.892;6.906;2024-03-07T09:58:08;23.90;;;17.83;;
18716;SDS011;9487;50.892;6.906;2024-03-07T10:00:38;21.87;;;17.17;;
18716;SDS011;9487;50.892;6.906;2024-03-07T10:03:08;24.23;;;17.80;;
18716;SDS011;9487;50.892;6.906;2024-03-07T10:05:39;21.37;;;17.47;;
18716;SDS011;9487;50.892;6.906;2024-03-07T10:08:06;21.63;;;17.67;;
18716;SDS011;9487;50.892;6.906;2024-03-07T10:10:35;20.87;;;18.03;;
18716;SDS011;9487;50.892;6.906;2024-03-07T10:13:03;19.27;;;16.43;;
18716;SDS011;9487;50.892;6.906;2024-03-07T10:15:30;20.50;;;16.47;;
18716;SDS011;9487;50.892;6.906;2024-03-07T10:17:59;20.37;;;17.20;;
18716;SDS011;9487;50.892;6.906;2024-03-07T10:20:26;20.60;;;16.77;;
18716;SDS011;9487;50.892;6.906;2024-03-07T10:22:54;20.60;;;16.70;;
18716;SDS011;9487;50.892;6.906;2024-03-07T10:25:21;20.17;;;16.93;;
18716;SDS011;9487;50.892;6.906;2024-03-07T10:27:51;19.27;;;16.60;;
18716;SDS011;9487;50.892;6.906;2024-03-07T10:30:19;19.40;;;16.77;;
18716;SDS011;9487;50.892;6.906;2024-03-07T10:32:46;22.30;;;16.33;;
18716;SDS011;9487;50.892;6.906;2024-03-07T10:35:14;19.70;;;17.20;;
18716;SDS011;9487;50.892;6.906;2024-03-07T10:37:46;22.23;;;16.73;;
18716;SDS011;9487;50.892;6.906;2024-03-07T10:40:15;20.87;;;17.83;;
18716;SDS011;9487;50.892;6.906;2024-03-07T10:42:44;23.00;;;16.83;;
18716;SDS011;9487;50.892;6.906;2024-03-07T10:45:16;21.30;;;16.97;;
18716;SDS011;9487;50.892;6.906;2024-03-07T10:47:46;21.80;;;17.07;;
18716;SDS011;9487;50.892;6.906;2024-03-07T10:50:19;19.77;;;16.87;;
18716;SDS011;9487;50.892;6.906;2024-03-07T10:52:54;19.23;;;17.00;;
18716;SDS011;9487;50.892;6.906;2024-03-07T10:55:30;21.67;;;17.57;;
18716;SDS011;9487;50.892;6.906;2024-03-07T10:58:05;19.47;;;16.53;;
18716;SDS011;9487;50.892;6.906;2024-03-07T11:00:39;20.97;;;17.10;;
18716;SDS011;9487;50.892;6.906;2024-03-07T11:03:10;19.40;;;17.23;;
18716;SDS011;9487;50.892;6.906;2024-03-07T11:05:39;21.40;;;17.87;;
18716;SDS011;9487;50.892;6.906;2024-03-07T11:08:08;18.87;;;16.80;;
18716;SDS011;9487;50.892;6.906;2024-03-07T11:10:38;21.73;;;17.37;;
18716;SDS011;9487;50.892;6.906;2024-03-07T11:13:06;19.10;;;16.83;;
18716;SDS011;9487;50.892;6.906;2024-03-07T11:15:36;19.07;;;17.07;;
18716;SDS011;9487;50.892;6.906;2024-03-07T11:18:06;19.40;;;16.90;;
18716;SDS011;9487;50.892;6.906;2024-03-07T11:20:35;22.03;;;17.50;;
18716;SDS011;9487;50.892;6.906;2024-03-07T11:25:55;18.40;;;15.63;;
18716;SDS011;9487;50.892;6.906;2024-03-07T11:28:28;19.60;;;16.23;;
18716;SDS011;9487;50.892;6.906;2024-03-07T11:31:06;18.83;;;16.43;;
18716;SDS011;9487;50.892;6.906;2024-03-07T11:33:36;19.30;;;16.53;;
18716;SDS011;9487;50.892;6.906;2024-03-07T11:36:05;18.87;;;15.40;;
18716;SDS011;9487;50.892;6.906;2024-03-07T11:38:33;17.77;;;15.87;;
18716;SDS011;9487;50.892;6.906;2024-03-07T11:41:01;18.80;;;16.30;;
18716;SDS011;9487;50.892;6.906;2024-03-07T11:43:30;18.13;;;16.10;;
18716;SDS011;9487;50.892;6.906;2024-03-07T11:45:58;19.30;;;16.70;;
18716;SDS011;9487;50.892;6.906;2024-03-07T11:48:25;19.47;;;16.53;;
18716;SDS011;9487;50.892;6.906;2024-03-07T11:50:52;18.03;;;15.80;;
18716;SDS011;9487;50.892;6.906;2024-03-07T11:53:20;18.83;;;16.63;;
18716;SDS011;9487;50.892;6.906;2024-03-07T11:55:47;20.43;;;16.73;;
18716;SDS011;9487;50.892;6.906;2024-03-07T11:58:16;20.40;;;16.30;;
18716;SDS011;9487;50.892;6.906;2024-03-07T12:00:46;17.80;;;14.93;;
18716;SDS011;9487;50.892;6.906;2024-03-07T12:03:14;17.30;;;15.43;;
18716;SDS011;9487;50.892;6.906;2024-03-07T12:05:43;17.97;;;15.97;;
18716;SDS011;9487;50.892;6.906;2024-03-07T12:08:11;17.93;;;16.03;;
18716;SDS011;9487;50.892;6.906;2024-03-07T12:10:38;18.90;;;15.80;;
18716;SDS011;9487;50.892;6.906;2024-03-07T12:13:08;18.17;;;14.67;;
18716;SDS011;9487;50.892;6.906;2024-03-07T12:15:37;16.97;;;15.17;;
18716;SDS011;9487;50.892;6.906;2024-03-07T12:18:06;17.07;;;14.60;;
18716;SDS011;9487;50.892;6.906;2024-03-07T12:20:39;18.17;;;15.13;;
18716;SDS011;9487;50.892;6.906;2024-03-07T12:23:08;17.93;;;14.93;;
18716;SDS011;9487;50.892;6.906;2024-03-07T12:25:37;17.73;;;14.97;;
18716;SDS011;9487;50.892;6.906;2024-03-07T12:28:05;17.80;;;15.03;;
18716;SDS011;9487;50.892;6.906;2024-03-07T12:30:36;18.13;;;15.37;;
18716;SDS011;9487;50.892;6.906;2024-03-07T12:33:19;19.93;;;14.97;;
18716;SDS011;9487;50.892;6.906;2024-03-07T12:35:48;18.23;;;15.03;;
18716;SDS011;9487;50.892;6.906;2024-03-07T12:38:17;17.17;;;14.40;;
18716;SDS011;9487;50.892;6.906;2024-03-07T12:40:44;16.70;;;14.70;;
18716;SDS011;9487;50.892;6.906;2024-03-07T12:43:12;17.07;;;13.67;;
18716;SDS011;9487;50.892;6.906;2024-03-07T12:45:42;14.37;;;12.73;;
18716;SDS011;9487;50.892;6.906;2024-03-07T12:48:18;16.77;;;13.40;;
18716;SDS011;9487;50.892;6.906;2024-03-07T12:50:46;13.77;;;12.37;;
18716;SDS011;9487;50.892;6.906;2024-03-07T12:53:18;15.83;;;13.67;;
18716;SDS011;9487;50.892;6.906;2024-03-07T12:55:45;15.77;;;13.63;;
18716;SDS011;9487;50.892;6.906;2024-03-07T12:58:12;14.87;;;12.83;;
18716;SDS011;9487;50.892;6.906;2024-03-07T13:00:39;14.70;;;13.10;;
18716;SDS011;9487;50.892;6.906;2024-03-07T13:03:08;15.80;;;13.20;;
18716;SDS011;9487;50.892;6.906;2024-03-07T13:05:35;14.50;;;12.50;;
18716;SDS011;9487;50.892;6.906;2024-03-07T13:08:05;13.57;;;12.17;;
18716;SDS011;9487;50.892;6.906;2024-03-07T13:10:34;13.60;;;11.73;;
18716;SDS011;9487;50.892;6.906;2024-03-07T13:13:02;14.63;;;12.20;;
18716;SDS011;9487;50.892;6.906;2024-03-07T13:15:29;12.50;;;11.20;;
18716;SDS011;9487;50.892;6.906;2024-03-07T13:17:56;12.40;;;10.80;;
18716;SDS011;9487;50.892;6.906;2024-03-07T13:20:25;10.97;;;9.77;;
18716;SDS011;9487;50.892;6.906;2024-03-07T13:22:52;12.80;;;10.33;;
18716;SDS011;9487;50.892;6.906;2024-03-07T13:25:21;11.63;;;10.43;;
18716;SDS011;9487;50.892;6.906;2024-03-07T13:27:55;12.50;;;10.77;;
18716;SDS011;9487;50.892;6.906;2024-03-07T13:30:24;12.43;;;11.13;;
18716;SDS011;9487;50.892;6.906;2024-03-07T13:32:53;12.80;;;10.33;;
18716;SDS011;9487;50.892;6.906;2024-03-07T13:35:21;12.60;;;11.30;;
18716;SDS011;9487;50.892;6.906;2024-03-07T13:37:51;13.23;;;11.27;;
18716;SDS011;9487;50.892;6.906;2024-03-07T13:40:20;11.47;;;10.27;;
18716;SDS011;9487;50.892;6.906;2024-03-07T13:42:51;11.37;;;10.23;;
18716;SDS011;9487;50.892;6.906;2024-03-07T13:45:20;13.50;;;11.50;;
18716;SDS011;9487;50.892;6.906;2024-03-07T13:47:48;12.33;;;10.73;;
18716;SDS011;9487;50.892;6.906;2024-03-07T13:50:17;12.50;;;11.17;;
18716;SDS011;9487;50.892;6.906;2024-03-07T13:52:47;13.67;;;12.20;;
18716;SDS011;9487;50.892;6.906;2024-03-07T13:55:39;12.23;;;10.07;;
18716;SDS011;9487;50.892;6.906;2024-03-07T13:58:16;11.73;;;10.53;;
18716;SDS011;9487;50.892;6.906;2024-03-07T14:00:52;10.77;;;9.67;;
18716;SDS011;9487;50.892;6.906;2024-03-07T14:06:42;12.13;;;10.20;;
18716;SDS011;9487;50.892;6.906;2024-03-07T14:09:24;9.90;;;8.83;;
18716;SDS011;9487;50.892;6.906;2024-03-07T14:12:35;10.17;;;8.97;;
18716;SDS011;9487;50.892;6.906;2024-03-07T14:15:47;11.57;;;9.83;;
18716;SDS011;9487;50.892;6.906;2024-03-07T14:25:04;10.97;;;9.67;;
18716;SDS011;9487;50.892;6.906;2024-03-07T14:27:53;13.23;;;9.73;;
18716;SDS011;9487;50.892;6.906;2024-03-07T14:30:40;11.73;;;9.30;;
18716;SDS011;9487;50.892;6.906;2024-03-07T14:33:11;12.80;;;8.70;;
18716;SDS011;9487;50.892;6.906;2024-03-07T14:38:40;12.87;;;10.93;;
18716;SDS011;9487;50.892;6.906;2024-03-07T14:41:10;12.00;;;10.20;;
18716;SDS011;9487;50.892;6.906;2024-03-07T14:43:41;13.03;;;10.30;;
18716;SDS011;9487;50.892;6.906;2024-03-07T14:46:10;12.33;;;11.03;;
18716;SDS011;9487;50.892;6.906;2024-03-07T14:48:37;12.50;;;11.10;;
18716;SDS011;9487;50.892;6.906;2024-03-07T14:51:06;12.13;;;10.13;;
18716;SDS011;9487;50.892;6.906;2024-03-07T14:53:34;12.80;;;10.47;;
18716;SDS011;9487;50.892;6.906;2024-03-07T14:56:02;11.60;;;10.40;;
18716;SDS011;9487;50.892;6.906;2024-03-07T14:58:30;13.67;;;11.27;;
18716;SDS011;9487;50.892;6.906;2024-03-07T15:00:58;11.57;;;10.47;;